createdAt,value
2023-05-12T00:02:02.186Z,100.00
2023-05-12T00:04:29.914Z,100.00
2023-05-12T00:06:57.495Z,100.00
2023-05-12T00:09:25.111Z,100.00
2023-05-12T00:11:52.653Z,100.00
2023-05-12T00:14:20.528Z,100.00
2023-05-12T00:16:51.836Z,100.00
2023-05-12T00:19:21.165Z,100.00
2023-05-12T00:21:48.790Z,100.00
2023-05-12T00:24:16.530Z,100.00
2023-05-12T00:26:44.354Z,100.00
2023-05-12T00:29:11.988Z,100.00
2023-05-12T00:31:39.643Z,100.00
2023-05-12T00:34:07.229Z,100.00
2023-05-12T00:36:36.535Z,100.00
2023-05-12T00:41:32.392Z,100.00
2023-05-12T00:43:59.970Z,100.00
2023-05-12T00:46:27.738Z,100.00
2023-05-12T00:48:55.381Z,100.00
2023-05-12T00:51:23.026Z,100.00
2023-05-12T00:53:52.067Z,100.00
2023-05-12T00:56:19.922Z,100.00
2023-05-12T00:58:48.007Z,100.00
2023-05-12T01:01:17.070Z,100.00
2023-05-12T01:03:46.222Z,100.00
2023-05-12T01:06:14.555Z,100.00
2023-05-12T01:08:42.571Z,100.00
2023-05-12T01:11:12.083Z,100.00
2023-05-12T01:13:41.273Z,100.00
2023-05-12T01:16:09.868Z,100.00
2023-05-12T01:18:37.857Z,100.00
2023-05-12T01:21:06.081Z,100.00
2023-05-12T01:23:35.318Z,100.00
2023-05-12T01:26:05.487Z,100.00
2023-05-12T01:28:33.187Z,100.00
2023-05-12T01:31:00.884Z,100.00
2023-05-12T01:33:29.024Z,100.00
2023-05-12T01:35:56.627Z,100.00
2023-05-12T01:38:24.489Z,100.00
2023-05-12T01:41:09.116Z,100.00
2023-05-12T01:43:37.251Z,100.00
2023-05-12T01:46:05.016Z,100.00
2023-05-12T01:48:33.117Z,100.00
2023-05-12T01:51:00.996Z,100.00
2023-05-12T01:53:28.864Z,100.00
2023-05-12T01:55:56.430Z,100.00
2023-05-12T01:58:27.095Z,100.00
2023-05-12T02:00:55.282Z,100.00
2023-05-12T02:03:23.233Z,100.00
2023-05-12T02:05:51.586Z,100.00
2023-05-12T02:08:19.596Z,100.00
2023-05-12T02:10:47.236Z,100.00
2023-05-12T02:13:15.415Z,100.00
2023-05-12T02:15:44.551Z,100.00
2023-05-12T02:18:12.262Z,100.00
2023-05-12T02:20:40.651Z,100.00
2023-05-12T02:23:09.912Z,100.00
2023-05-12T02:25:37.735Z,100.00
2023-05-12T02:28:08.116Z,100.00
2023-05-12T02:30:35.840Z,100.00
2023-05-12T02:33:05.949Z,100.00
2023-05-12T02:35:34.313Z,100.00
2023-05-12T02:38:01.929Z,100.00
2023-05-12T02:40:29.616Z,100.00
2023-05-12T02:42:58.097Z,100.00
2023-05-12T02:45:25.956Z,100.00
2023-05-12T02:47:54.997Z,100.00
2023-05-12T02:50:23.987Z,100.00
2023-05-12T02:52:54.200Z,100.00
2023-05-12T02:55:24.911Z,100.00
2023-05-12T02:57:52.680Z,100.00
2023-05-12T03:00:20.607Z,100.00
2023-05-12T03:02:48.538Z,100.00
2023-05-12T03:05:16.288Z,100.00
2023-05-12T03:07:45.397Z,100.00
2023-05-12T03:10:13.027Z,100.00
2023-05-12T03:12:41.096Z,100.00
2023-05-12T03:15:09.979Z,100.00
2023-05-12T03:17:37.674Z,100.00
2023-05-12T03:20:08.256Z,100.00
2023-05-12T03:22:37.541Z,100.00
2023-05-12T03:25:08.414Z,100.00
2023-05-12T03:27:36.106Z,100.00
2023-05-12T03:30:05.791Z,100.00
2023-05-12T03:32:39.226Z,100.00
2023-05-12T03:35:10.020Z,100.00
2023-05-12T03:37:37.666Z,100.00
2023-05-12T03:40:09.611Z,100.00
2023-05-12T03:42:37.395Z,100.00
2023-05-12T03:45:09.745Z,100.00
2023-05-12T03:47:37.591Z,100.00
2023-05-12T03:50:06.838Z,100.00
2023-05-12T03:52:34.948Z,100.00
2023-05-12T03:55:02.873Z,100.00
2023-05-12T03:57:31.760Z,100.00
2023-05-12T03:59:59.774Z,100.00
2023-05-12T04:02:27.645Z,100.00
2023-05-12T04:04:55.354Z,100.00
2023-05-12T04:07:23.016Z,100.00
2023-05-12T04:09:50.989Z,100.00
2023-05-12T04:12:21.197Z,100.00
2023-05-12T04:14:50.784Z,100.00
2023-05-12T04:17:19.227Z,100.00
2023-05-12T04:19:47.142Z,100.00
2023-05-12T04:22:40.102Z,100.00
2023-05-12T04:25:14.339Z,100.00
2023-05-12T04:27:42.019Z,100.00
2023-05-12T04:30:11.497Z,100.00
2023-05-12T04:32:41.012Z,100.00
2023-05-12T04:35:09.423Z,100.00
2023-05-12T04:37:37.168Z,100.00
2023-05-12T04:40:07.201Z,100.00
2023-05-12T04:42:34.927Z,100.00
2023-05-12T04:45:02.576Z,100.00
2023-05-12T04:47:31.700Z,100.00
2023-05-12T04:49:59.366Z,100.00
2023-05-12T04:52:27.041Z,100.00
2023-05-12T04:54:54.741Z,100.00
2023-05-12T04:57:23.170Z,100.00
2023-05-12T04:59:51.805Z,100.00
2023-05-12T05:02:19.495Z,100.00
2023-05-12T05:04:49.026Z,100.00
2023-05-12T05:07:16.843Z,100.00
2023-05-12T05:09:44.772Z,100.00
2023-05-12T05:12:12.479Z,100.00
2023-05-12T05:14:40.280Z,100.00
2023-05-12T05:17:08.158Z,100.00
2023-05-12T05:19:50.922Z,100.00
2023-05-12T05:22:24.810Z,100.00
2023-05-12T05:24:52.886Z,100.00
2023-05-12T05:27:20.769Z,100.00
2023-05-12T05:29:49.442Z,100.00
2023-05-12T05:32:17.099Z,100.00
2023-05-12T05:34:45.616Z,100.00
2023-05-12T05:37:13.368Z,100.00
2023-05-12T05:39:42.658Z,100.00
2023-05-12T05:42:10.356Z,100.00
2023-05-12T05:44:38.093Z,100.00
2023-05-12T05:47:06.656Z,100.00
2023-05-12T05:49:37.932Z,100.00
2023-05-12T05:52:06.452Z,100.00
2023-05-12T05:54:34.241Z,100.00
2023-05-12T05:57:03.231Z,100.00
2023-05-12T05:59:32.221Z,100.00
2023-05-12T06:02:00.109Z,100.00
2023-05-12T06:04:27.944Z,100.00
2023-05-12T06:06:57.775Z,100.00
2023-05-12T06:09:25.500Z,100.00
2023-05-12T06:11:53.377Z,100.00
2023-05-12T06:14:23.210Z,100.00
2023-05-12T06:16:51.014Z,100.00
2023-05-12T06:19:18.948Z,100.00
2023-05-12T06:21:46.670Z,100.00
2023-05-12T06:24:14.375Z,100.00
2023-05-12T06:26:43.482Z,100.00
2023-05-12T06:29:11.095Z,100.00
2023-05-12T06:31:40.248Z,100.00
2023-05-12T06:34:09.010Z,100.00
2023-05-12T06:36:36.640Z,100.00
2023-05-12T06:39:04.505Z,100.00
2023-05-12T06:41:33.638Z,100.00
2023-05-12T06:44:02.368Z,100.00
2023-05-12T06:46:30.023Z,100.00
2023-05-12T06:49:00.318Z,100.00
2023-05-12T06:51:28.013Z,100.00
2023-05-12T06:53:58.878Z,100.00
2023-05-12T06:56:26.556Z,100.00
2023-05-12T06:58:56.224Z,100.00
2023-05-12T07:01:23.974Z,100.00
2023-05-12T07:03:51.824Z,100.00
2023-05-12T07:06:21.014Z,100.00
2023-05-12T07:08:48.640Z,100.00
2023-05-12T07:11:20.813Z,98.44
2023-05-12T07:13:48.363Z,100.00
2023-05-12T07:16:16.058Z,95.17
2023-05-12T07:18:43.901Z,94.75
2023-05-12T07:21:11.461Z,94.71
2023-05-12T07:23:40.600Z,92.01
2023-05-12T07:26:08.282Z,92.16
2023-05-12T07:28:36.540Z,92.60
2023-05-12T07:31:07.219Z,91.29
2023-05-12T07:33:34.879Z,92.89
2023-05-12T07:36:02.679Z,86.42
2023-05-12T07:38:30.257Z,81.47
2023-05-12T07:40:59.218Z,83.09
2023-05-12T07:43:26.859Z,78.59
2023-05-12T07:45:56.163Z,75.31
2023-05-12T07:48:23.880Z,80.81
2023-05-12T07:50:55.861Z,72.62
2023-05-12T07:53:23.503Z,71.86
2023-05-12T07:55:51.827Z,75.57
2023-05-12T07:58:20.705Z,75.72
2023-05-12T08:00:50.310Z,75.16
2023-05-12T08:03:18.087Z,78.15
2023-05-12T08:05:46.222Z,73.32
2023-05-12T08:08:16.782Z,74.50
2023-05-12T08:10:44.516Z,75.31
2023-05-12T08:13:12.209Z,72.63
2023-05-12T08:15:41.097Z,72.06
2023-05-12T08:18:08.685Z,66.45
2023-05-12T08:20:39.546Z,61.96
2023-05-12T08:23:09.482Z,64.02
2023-05-12T08:25:37.577Z,66.85
2023-05-12T08:28:05.271Z,62.31
2023-05-12T08:31:28.656Z,60.91
2023-05-12T08:34:09.192Z,61.20
2023-05-12T08:36:38.186Z,63.82
2023-05-12T08:39:05.776Z,67.12
2023-05-12T08:41:38.342Z,59.73
2023-05-12T08:44:06.452Z,62.27
2023-05-12T08:46:33.997Z,64.08
2023-05-12T08:49:03.000Z,58.70
2023-05-12T08:51:30.518Z,66.09
2023-05-12T08:53:58.059Z,64.58
2023-05-12T08:59:01.071Z,66.06
2023-05-12T09:01:30.390Z,66.16
2023-05-12T09:03:58.036Z,63.92
2023-05-12T09:06:29.793Z,56.47
2023-05-12T09:08:59.450Z,61.74
2023-05-12T09:11:27.035Z,65.46
2023-05-12T09:13:56.100Z,61.85
2023-05-12T09:16:24.266Z,63.11
2023-05-12T09:18:53.359Z,63.06
2023-05-12T09:21:23.336Z,61.04
2023-05-12T09:23:56.139Z,63.34
2023-05-12T09:26:29.122Z,62.16
2023-05-12T09:28:57.411Z,63.73
2023-05-12T09:31:26.082Z,64.07
2023-05-12T09:33:54.057Z,62.97
2023-05-12T09:36:24.773Z,65.19
2023-05-12T09:39:07.152Z,62.17
2023-05-12T09:41:36.151Z,59.82
2023-05-12T09:44:03.650Z,63.36
2023-05-12T09:46:34.257Z,66.34
2023-05-12T09:49:02.806Z,68.85
2023-05-12T09:51:32.212Z,67.05
2023-05-12T09:53:59.821Z,68.25
2023-05-12T09:56:29.965Z,68.42
2023-05-12T09:59:03.132Z,66.15
2023-05-12T10:01:31.088Z,69.69
2023-05-12T10:04:00.233Z,69.28
2023-05-12T10:06:28.996Z,69.60
2023-05-12T10:08:59.957Z,70.13
2023-05-12T10:11:29.136Z,71.73
2023-05-12T10:13:58.213Z,67.56
2023-05-12T10:16:28.386Z,69.20
2023-05-12T10:18:56.098Z,67.19
2023-05-12T10:21:26.938Z,67.90
2023-05-12T10:23:57.918Z,65.52
2023-05-12T10:26:30.007Z,67.07
2023-05-12T10:28:58.243Z,67.22
2023-05-12T10:31:26.007Z,69.12
2023-05-12T10:33:58.080Z,69.99
2023-05-12T10:36:25.886Z,69.75
2023-05-12T10:38:54.767Z,69.74
2023-05-12T10:41:33.466Z,71.87
2023-05-12T10:44:01.605Z,69.79
2023-05-12T10:46:30.583Z,64.88
2023-05-12T10:49:05.437Z,65.79
2023-05-12T10:51:33.479Z,65.44
2023-05-12T10:54:07.914Z,67.01
2023-05-12T10:56:43.777Z,65.40
2023-05-12T10:59:17.235Z,66.86
2023-05-12T11:01:57.887Z,67.38
2023-05-12T11:04:37.271Z,69.89
2023-05-12T11:07:08.388Z,73.95
2023-05-12T11:09:43.267Z,71.70
2023-05-12T11:12:19.497Z,66.21
2023-05-12T11:14:49.312Z,69.61
2023-05-12T11:17:22.088Z,69.17
2023-05-12T11:19:52.656Z,73.92
2023-05-12T11:22:20.778Z,75.92
2023-05-12T11:24:48.581Z,73.70
2023-05-12T11:27:16.861Z,69.42
2023-05-12T11:29:48.697Z,73.24
2023-05-12T11:32:16.607Z,69.72
2023-05-12T11:34:47.456Z,70.92
2023-05-12T11:37:25.695Z,77.29
2023-05-12T11:40:01.105Z,75.25
2023-05-12T11:42:28.712Z,72.04
2023-05-12T11:45:00.483Z,66.19
2023-05-12T11:47:28.156Z,67.43
2023-05-12T11:49:56.328Z,66.83
2023-05-12T11:52:24.577Z,64.83
2023-05-12T11:54:52.696Z,69.18
2023-05-12T11:57:26.997Z,69.82
2023-05-12T12:00:00.353Z,68.18
2023-05-12T12:02:28.455Z,67.53
2023-05-12T12:04:56.450Z,67.58
2023-05-12T12:07:30.726Z,64.94
2023-05-12T12:09:58.574Z,70.05
2023-05-12T12:12:26.434Z,72.67
2023-05-12T12:14:56.709Z,71.41
2023-05-12T12:17:30.848Z,74.50
2023-05-12T12:20:02.058Z,72.70
2023-05-12T12:22:34.205Z,71.14
2023-05-12T12:25:02.125Z,67.08
2023-05-12T12:27:29.747Z,67.18
2023-05-12T12:29:57.708Z,74.74
2023-05-12T12:32:27.184Z,71.84
2023-05-12T12:34:59.572Z,77.75
2023-05-12T12:37:27.186Z,77.99
2023-05-12T12:39:55.957Z,76.75
2023-05-12T12:42:24.691Z,72.99
2023-05-12T12:44:52.666Z,76.59
2023-05-12T12:47:20.462Z,73.03
2023-05-12T12:49:49.446Z,71.25
2023-05-12T12:52:17.433Z,71.25
2023-05-12T12:54:45.298Z,71.39
2023-05-12T12:57:12.920Z,71.91
2023-05-12T12:59:40.537Z,69.56
2023-05-12T13:02:08.274Z,73.60
2023-05-12T13:04:39.151Z,78.00
2023-05-12T13:07:08.092Z,70.94
2023-05-12T13:09:35.708Z,74.49
2023-05-12T13:12:03.775Z,69.08
2023-05-12T13:14:34.252Z,62.21
2023-05-12T13:17:02.660Z,64.82
2023-05-12T13:19:30.386Z,63.61
2023-05-12T13:22:00.805Z,62.18
2023-05-12T13:24:29.898Z,61.74
2023-05-12T13:26:58.385Z,62.85
2023-05-12T13:29:25.983Z,61.24
2023-05-12T13:31:54.352Z,65.40
2023-05-12T13:34:24.880Z,72.79
2023-05-12T13:36:52.589Z,74.93
2023-05-12T13:39:22.240Z,78.66
2023-05-12T13:41:51.306Z,78.19
2023-05-12T13:44:19.467Z,79.76
2023-05-12T13:46:47.157Z,81.33
2023-05-12T13:49:19.824Z,79.80
2023-05-12T13:51:47.510Z,80.50
2023-05-12T13:54:16.825Z,83.25
2023-05-12T13:56:44.453Z,83.97
2023-05-12T13:59:13.398Z,84.00
2023-05-12T14:01:41.253Z,83.95
2023-05-12T14:04:08.956Z,87.59
2023-05-12T14:06:36.754Z,91.62
2023-05-12T14:09:05.640Z,89.11
2023-05-12T14:11:33.525Z,86.92
2023-05-12T14:14:01.155Z,86.55
2023-05-12T14:16:30.280Z,80.63
2023-05-12T14:18:59.937Z,82.08
2023-05-12T14:21:31.000Z,80.82
2023-05-12T14:24:00.607Z,78.95
2023-05-12T14:26:28.353Z,78.13
2023-05-12T14:28:56.144Z,72.21
2023-05-12T14:31:23.881Z,67.48
2023-05-12T14:33:53.349Z,65.67
2023-05-12T14:36:20.930Z,60.37
2023-05-12T14:38:54.410Z,65.04
2023-05-12T14:41:25.856Z,62.76
2023-05-12T14:43:53.580Z,61.75
2023-05-12T14:46:21.701Z,60.21
2023-05-12T14:48:49.282Z,61.45
2023-05-12T14:51:18.318Z,67.31
2023-05-12T14:53:46.070Z,62.71
2023-05-12T14:56:13.765Z,57.05
2023-05-12T14:58:41.368Z,58.41
2023-05-12T15:01:09.575Z,53.56
2023-05-12T15:03:37.522Z,56.76
2023-05-12T15:06:07.862Z,54.63
2023-05-12T15:08:37.519Z,55.79
2023-05-12T15:11:05.227Z,54.68
2023-05-12T15:13:32.876Z,54.44
2023-05-12T15:16:01.568Z,49.76
2023-05-12T15:18:29.295Z,51.25
2023-05-12T15:20:58.267Z,49.88
2023-05-12T15:23:28.300Z,50.05
2023-05-12T15:26:15.486Z,53.35
2023-05-12T15:28:54.168Z,54.12
2023-05-12T15:31:23.941Z,54.03
2023-05-12T15:33:51.569Z,52.07
2023-05-12T15:36:22.315Z,53.24
2023-05-12T15:38:51.498Z,55.84
2023-05-12T15:41:21.620Z,51.76
2023-05-12T15:43:52.712Z,52.54
2023-05-12T15:46:25.130Z,46.21
2023-05-12T15:48:52.865Z,50.41
2023-05-12T15:51:20.531Z,48.76
2023-05-12T15:53:48.197Z,51.44
2023-05-12T15:56:15.863Z,54.17
2023-05-12T15:58:49.948Z,51.28
2023-05-12T16:01:17.642Z,52.32
2023-05-12T16:03:51.221Z,52.57
2023-05-12T16:06:19.259Z,52.25
2023-05-12T16:08:46.792Z,49.41
2023-05-12T16:11:14.773Z,53.06
2023-05-12T16:13:42.411Z,57.99
2023-05-12T16:16:15.196Z,60.97
2023-05-12T16:18:43.608Z,56.55
2023-05-12T16:21:11.813Z,64.80
2023-05-12T16:23:43.625Z,71.93
2023-05-12T16:26:11.216Z,77.45
2023-05-12T16:28:38.721Z,87.78
2023-05-12T16:31:11.693Z,91.21
2023-05-12T16:33:40.633Z,92.32
2023-05-12T16:36:09.760Z,92.12
2023-05-12T16:38:37.356Z,94.06
2023-05-12T16:41:07.718Z,96.54
2023-05-12T16:43:35.384Z,96.83
2023-05-12T16:46:06.222Z,96.45
2023-05-12T16:48:36.877Z,95.09
2023-05-12T16:51:06.690Z,94.62
2023-05-12T16:53:34.523Z,91.04
2023-05-12T16:56:04.895Z,91.52
2023-05-12T16:58:32.561Z,93.06
2023-05-12T17:01:06.233Z,90.24
2023-05-12T17:03:36.348Z,89.44
2023-05-12T17:06:06.800Z,85.20
2023-05-12T17:08:38.839Z,85.28
2023-05-12T17:11:10.493Z,86.45
2023-05-12T17:13:38.563Z,89.02
2023-05-12T17:16:06.879Z,89.66
2023-05-12T17:19:13.725Z,89.64
2023-05-12T17:21:23.777Z,90.15
2023-05-12T17:23:54.992Z,95.45
2023-05-12T17:26:25.233Z,99.36
2023-05-12T17:28:54.745Z,99.51
2023-05-12T17:31:22.839Z,97.85
2023-05-12T17:33:53.136Z,97.09
2023-05-12T17:36:23.427Z,93.58
2023-05-12T17:38:56.407Z,89.99
2023-05-12T17:41:28.316Z,89.32
2023-05-12T17:43:57.589Z,91.78
2023-05-12T17:46:25.330Z,93.10
2023-05-12T17:48:52.960Z,93.60
2023-05-12T17:51:22.228Z,95.52
2023-05-12T17:53:50.207Z,95.84
2023-05-12T17:56:22.128Z,97.08
2023-05-12T17:58:51.929Z,97.99
2023-05-12T18:01:21.068Z,96.83
2023-05-12T18:03:48.820Z,97.78
2023-05-12T18:06:19.376Z,100.00
2023-05-12T18:08:47.234Z,99.58
2023-05-12T18:11:18.029Z,98.33
2023-05-12T18:13:47.058Z,95.62
2023-05-12T18:16:28.001Z,95.57
2023-05-12T18:19:00.122Z,97.86
2023-05-12T18:21:29.886Z,96.42
2023-05-12T18:23:57.606Z,97.04
2023-05-12T18:26:27.758Z,99.53
2023-05-12T18:28:59.634Z,99.54
2023-05-12T18:31:27.592Z,100.00
2023-05-12T18:33:55.212Z,100.00
2023-05-12T18:36:23.056Z,100.00
2023-05-12T18:38:50.622Z,100.00
2023-05-12T18:41:18.219Z,100.00
2023-05-12T18:43:50.225Z,100.00
2023-05-12T18:46:19.771Z,100.00
2023-05-12T18:48:47.335Z,100.00
2023-05-12T18:51:16.298Z,100.00
2023-05-12T18:53:43.911Z,100.00
2023-05-12T18:56:14.254Z,100.00
2023-05-12T18:58:41.907Z,100.00
2023-05-12T19:01:09.554Z,100.00
2023-05-12T19:03:38.564Z,100.00
2023-05-12T19:06:06.273Z,100.00
2023-05-12T19:08:34.023Z,100.00
2023-05-12T19:11:02.973Z,100.00
2023-05-12T19:13:30.895Z,100.00
2023-05-12T19:15:58.477Z,100.00
2023-05-12T19:18:41.570Z,100.00
2023-05-12T19:21:09.122Z,100.00
2023-05-12T19:23:36.780Z,100.00
2023-05-12T19:26:10.782Z,100.00
2023-05-12T19:28:40.784Z,100.00
2023-05-12T19:31:08.309Z,100.00
2023-05-12T19:33:36.061Z,100.00
2023-05-12T19:36:08.441Z,100.00
2023-05-12T19:38:37.073Z,100.00
2023-05-12T19:41:04.949Z,100.00
2023-05-12T19:43:32.639Z,100.00
2023-05-12T19:46:00.338Z,100.00
2023-05-12T19:48:27.914Z,100.00
2023-05-12T19:50:58.318Z,100.00
2023-05-12T19:53:27.849Z,100.00
2023-05-12T19:55:55.467Z,100.00
2023-05-12T19:58:26.429Z,100.00
2023-05-12T20:00:54.068Z,100.00
2023-05-12T20:03:30.535Z,100.00
2023-05-12T20:06:06.698Z,100.00
2023-05-12T20:08:35.627Z,100.00
2023-05-12T20:11:03.524Z,100.00
2023-05-12T20:13:36.552Z,100.00
2023-05-12T20:16:04.552Z,100.00
2023-05-12T20:18:32.440Z,100.00
2023-05-12T20:21:00.114Z,100.00
2023-05-12T20:23:39.315Z,100.00
2023-05-12T20:26:08.477Z,100.00
2023-05-12T20:28:36.140Z,100.00
2023-05-12T20:31:11.638Z,100.00
2023-05-12T20:33:39.498Z,100.00
2023-05-12T20:36:07.555Z,100.00
2023-05-12T20:38:36.293Z,100.00
2023-05-12T20:41:08.678Z,100.00
2023-05-12T20:43:36.355Z,100.00
2023-05-12T20:46:04.439Z,100.00
2023-05-12T20:48:32.873Z,100.00
2023-05-12T20:51:00.445Z,100.00
2023-05-12T20:53:29.022Z,100.00
2023-05-12T20:55:56.705Z,100.00
2023-05-12T20:58:25.954Z,100.00
2023-05-12T21:00:53.507Z,100.00
2023-05-12T21:03:23.076Z,100.00
2023-05-12T21:05:50.801Z,100.00
2023-05-12T21:08:18.468Z,100.00
2023-05-12T21:10:46.301Z,100.00
2023-05-12T21:13:15.989Z,100.00
2023-05-12T21:15:44.952Z,100.00
2023-05-12T21:18:13.420Z,100.00
2023-05-12T21:20:41.278Z,100.00
2023-05-12T21:23:11.635Z,100.00
2023-05-12T21:25:39.343Z,100.00
2023-05-12T21:28:07.657Z,100.00
2023-05-12T21:30:37.319Z,100.00
2023-05-12T21:33:10.738Z,100.00
2023-05-12T21:35:38.382Z,100.00
2023-05-12T21:38:08.445Z,100.00
2023-05-12T21:40:36.084Z,100.00
2023-05-12T21:43:05.092Z,100.00
2023-05-12T21:45:32.717Z,100.00
2023-05-12T21:48:00.522Z,100.00
2023-05-12T21:50:29.601Z,100.00
2023-05-12T21:52:57.422Z,100.00
2023-05-12T21:55:25.518Z,100.00
2023-05-12T21:57:53.292Z,100.00
2023-05-12T22:00:21.548Z,100.00
2023-05-12T22:02:49.560Z,100.00
2023-05-12T22:05:17.207Z,100.00
2023-05-12T22:07:46.711Z,100.00
2023-05-12T22:10:14.302Z,100.00
2023-05-12T22:12:42.307Z,100.00
2023-05-12T22:15:10.268Z,100.00
2023-05-12T22:17:38.057Z,100.00
2023-05-12T22:20:06.441Z,100.00
2023-05-12T22:22:34.434Z,100.00
2023-05-12T22:25:04.486Z,100.00
2023-05-12T22:27:32.168Z,100.00
2023-05-12T22:29:59.843Z,100.00
2023-05-12T22:32:27.634Z,100.00
2023-05-12T22:34:55.513Z,100.00
2023-05-12T22:37:23.184Z,100.00
2023-05-12T22:39:50.828Z,100.00
2023-05-12T22:42:19.748Z,100.00
2023-05-12T22:44:47.589Z,100.00
2023-05-12T22:47:15.517Z,100.00
2023-05-12T22:49:46.557Z,100.00
2023-05-12T22:52:14.201Z,100.00
2023-05-12T22:54:41.821Z,100.00
2023-05-12T22:57:09.693Z,100.00
2023-05-12T22:59:38.648Z,100.00
2023-05-12T23:02:06.604Z,100.00
2023-05-12T23:04:34.308Z,100.00
2023-05-12T23:07:01.963Z,100.00
2023-05-12T23:09:29.610Z,100.00
2023-05-12T23:11:57.261Z,100.00
2023-05-12T23:14:25.785Z,100.00
2023-05-12T23:16:54.810Z,100.00
2023-05-12T23:19:22.509Z,100.00
2023-05-12T23:21:50.065Z,100.00
2023-05-12T23:24:17.640Z,100.00
2023-05-12T23:26:45.355Z,100.00
2023-05-12T23:29:12.975Z,100.00
2023-05-12T23:31:40.608Z,100.00
2023-05-12T23:34:09.824Z,100.00
2023-05-12T23:36:37.387Z,100.00
2023-05-12T23:39:04.938Z,100.00
2023-05-12T23:41:34.013Z,100.00
2023-05-12T23:44:01.582Z,100.00
2023-05-12T23:46:29.230Z,100.00
2023-05-12T23:48:57.119Z,100.00
2023-05-12T23:51:28.491Z,100.00
2023-05-12T23:53:56.112Z,100.00
2023-05-12T23:56:23.829Z,100.00
2023-05-12T23:58:51.573Z,100.00
